sensor_id;sensor_type;location;lat;lon;timestamp;temperature;humidity
66144;SHT31;52947;50.842;6.084;2023-02-01T00:00:10;4.89;92.34
66144;SHT31;52947;50.842;6.084;2023-02-01T00:02:38;5.00;92.08
66144;SHT31;52947;50.842;6.084;2023-02-01T00:05:09;5.07;92.23
66144;SHT31;52947;50.842;6.084;2023-02-01T00:07:37;5.12;92.22
66144;SHT31;52947;50.842;6.084;2023-02-01T00:10:06;5.22;92.22
66144;SHT31;52947;50.842;6.084;2023-02-01T00:12:34;5.24;92.26
66144;SHT31;52947;50.842;6.084;2023-02-01T00:15:03;5.31;92.43
66144;SHT31;52947;50.842;6.084;2023-02-01T00:17:30;5.33;92.29
66144;SHT31;52947;50.842;6.084;2023-02-01T00:19:58;5.40;92.22
66144;SHT31;52947;50.842;6.084;2023-02-01T00:22:27;5.43;92.10
66144;SHT31;52947;50.842;6.084;2023-02-01T00:24:55;5.44;92.14
66144;SHT31;52947;50.842;6.084;2023-02-01T00:27:23;5.46;92.13
66144;SHT31;52947;50.842;6.084;2023-02-01T00:29:51;5.50;92.05
66144;SHT31;52947;50.842;6.084;2023-02-01T00:32:18;5.48;92.26
66144;SHT31;52947;50.842;6.084;2023-02-01T00:34:46;5.52;92.47
66144;SHT31;52947;50.842;6.084;2023-02-01T00:37:14;5.48;92.46
66144;SHT31;52947;50.842;6.084;2023-02-01T00:39:43;5.54;92.76
66144;SHT31;52947;50.842;6.084;2023-02-01T00:42:11;5.50;92.70
66144;SHT31;52947;50.842;6.084;2023-02-01T00:44:39;5.51;92.65
66144;SHT31;52947;50.842;6.084;2023-02-01T00:47:07;5.54;92.51
66144;SHT31;52947;50.842;6.084;2023-02-01T00:49:34;5.54;92.62
66144;SHT31;52947;50.842;6.084;2023-02-01T00:52:02;5.51;92.60
66144;SHT31;52947;50.842;6.084;2023-02-01T00:54:31;5.51;92.32
66144;SHT31;52947;50.842;6.084;2023-02-01T00:57:01;5.48;92.17
66144;SHT31;52947;50.842;6.084;2023-02-01T00:59:29;5.46;92.11
66144;SHT31;52947;50.842;6.084;2023-02-01T01:01:57;5.48;91.61
66144;SHT31;52947;50.842;6.084;2023-02-01T01:04:25;5.54;92.00
66144;SHT31;52947;50.842;6.084;2023-02-01T01:06:52;5.50;92.26
66144;SHT31;52947;50.842;6.084;2023-02-01T01:09:20;5.48;92.29
66144;SHT31;52947;50.842;6.084;2023-02-01T01:11:48;5.50;92.04
66144;SHT31;52947;50.842;6.084;2023-02-01T01:14:18;5.48;92.00
66144;SHT31;52947;50.842;6.084;2023-02-01T01:16:46;5.51;91.98
66144;SHT31;52947;50.842;6.084;2023-02-01T01:19:16;5.47;91.81
66144;SHT31;52947;50.842;6.084;2023-02-01T01:21:44;5.50;91.61
66144;SHT31;52947;50.842;6.084;2023-02-01T01:24:12;5.52;91.44
66144;SHT31;52947;50.842;6.084;2023-02-01T01:26:40;5.55;91.43
66144;SHT31;52947;50.842;6.084;2023-02-01T01:29:09;5.58;91.06
66144;SHT31;52947;50.842;6.084;2023-02-01T01:31:38;5.58;90.82
66144;SHT31;52947;50.842;6.084;2023-02-01T01:34:07;5.61;90.85
66144;SHT31;52947;50.842;6.084;2023-02-01T01:36:35;5.61;90.61
66144;SHT31;52947;50.842;6.084;2023-02-01T01:39:03;5.61;90.73
66144;SHT31;52947;50.842;6.084;2023-02-01T01:41:32;5.64;90.07
66144;SHT31;52947;50.842;6.084;2023-02-01T01:47:11;5.62;90.20
66144;SHT31;52947;50.842;6.084;2023-02-01T01:49:40;5.64;90.11
66144;SHT31;52947;50.842;6.084;2023-02-01T01:52:08;5.62;90.22
66144;SHT31;52947;50.842;6.084;2023-02-01T01:54:39;5.60;90.38
66144;SHT31;52947;50.842;6.084;2023-02-01T01:57:11;5.64;90.51
66144;SHT31;52947;50.842;6.084;2023-02-01T01:59:44;5.74;90.73
66144;SHT31;52947;50.842;6.084;2023-02-01T02:02:15;5.74;90.88
66144;SHT31;52947;50.842;6.084;2023-02-01T02:04:46;5.81;90.39
66144;SHT31;52947;50.842;6.084;2023-02-01T02:07:17;5.87;90.41
66144;SHT31;52947;50.842;6.084;2023-02-01T02:09:46;5.84;89.73
66144;SHT31;52947;50.842;6.084;2023-02-01T02:12:27;5.81;89.56
66144;SHT31;52947;50.842;6.084;2023-02-01T02:14:55;5.78;89.40
66144;SHT31;52947;50.842;6.084;2023-02-01T02:17:30;5.71;89.64
66144;SHT31;52947;50.842;6.084;2023-02-01T02:26:14;5.74;89.32
66144;SHT31;52947;50.842;6.084;2023-02-01T02:34:56;5.74;89.23
66144;SHT31;52947;50.842;6.084;2023-02-01T02:37:33;5.71;89.29
66144;SHT31;52947;50.842;6.084;2023-02-01T02:40:07;5.75;89.22
66144;SHT31;52947;50.842;6.084;2023-02-01T02:42:41;5.78;88.97
66144;SHT31;52947;50.842;6.084;2023-02-01T02:45:29;5.77;89.06
66144;SHT31;52947;50.842;6.084;2023-02-01T02:48:20;5.71;89.38
66144;SHT31;52947;50.842;6.084;2023-02-01T02:50:58;5.75;89.68
66144;SHT31;52947;50.842;6.084;2023-02-01T02:53:51;5.78;90.01
66144;SHT31;52947;50.842;6.084;2023-02-01T02:56:39;5.84;90.13
66144;SHT31;52947;50.842;6.084;2023-02-01T02:59:26;5.78;90.35
66144;SHT31;52947;50.842;6.084;2023-02-01T03:02:13;5.75;90.56
66144;SHT31;52947;50.842;6.084;2023-02-01T03:04:59;5.78;90.71
66144;SHT31;52947;50.842;6.084;2023-02-01T03:07:55;5.75;90.66
66144;SHT31;52947;50.842;6.084;2023-02-01T03:10:32;5.79;90.52
66144;SHT31;52947;50.842;6.084;2023-02-01T03:13:05;5.74;90.57
66144;SHT31;52947;50.842;6.084;2023-02-01T03:15:36;5.75;90.66
66144;SHT31;52947;50.842;6.084;2023-02-01T03:18:11;5.77;90.69
66144;SHT31;52947;50.842;6.084;2023-02-01T03:20:43;5.68;90.82
66144;SHT31;52947;50.842;6.084;2023-02-01T03:23:15;5.70;90.35
66144;SHT31;52947;50.842;6.084;2023-02-01T03:25:44;5.71;90.23
66144;SHT31;52947;50.842;6.084;2023-02-01T03:28:12;5.64;90.06
66144;SHT31;52947;50.842;6.084;2023-02-01T03:30:42;5.67;89.81
66144;SHT31;52947;50.842;6.084;2023-02-01T03:33:13;5.67;89.66
66144;SHT31;52947;50.842;6.084;2023-02-01T03:35:57;5.62;89.10
66144;SHT31;52947;50.842;6.084;2023-02-01T03:38:32;5.60;89.11
66144;SHT31;52947;50.842;6.084;2023-02-01T03:41:11;5.52;88.93
66144;SHT31;52947;50.842;6.084;2023-02-01T03:43:47;5.47;89.15
66144;SHT31;52947;50.842;6.084;2023-02-01T03:46:22;5.48;89.27
66144;SHT31;52947;50.842;6.084;2023-02-01T03:48:52;5.44;89.31
66144;SHT31;52947;50.842;6.084;2023-02-01T03:51:22;5.44;89.48
66144;SHT31;52947;50.842;6.084;2023-02-01T03:53:53;5.41;89.04
66144;SHT31;52947;50.842;6.084;2023-02-01T03:56:23;5.31;88.99
66144;SHT31;52947;50.842;6.084;2023-02-01T03:58:52;5.27;89.14
66144;SHT31;52947;50.842;6.084;2023-02-01T04:01:32;5.20;89.19
66144;SHT31;52947;50.842;6.084;2023-02-01T04:04:00;5.19;89.41
66144;SHT31;52947;50.842;6.084;2023-02-01T04:06:28;5.03;89.43
66144;SHT31;52947;50.842;6.084;2023-02-01T04:09:03;5.00;89.30
66144;SHT31;52947;50.842;6.084;2023-02-01T04:11:31;4.92;89.56
66144;SHT31;52947;50.842;6.084;2023-02-01T04:13:58;4.86;89.49
66144;SHT31;52947;50.842;6.084;2023-02-01T04:16:30;4.82;89.39
66144;SHT31;52947;50.842;6.084;2023-02-01T04:18:59;4.79;89.19
66144;SHT31;52947;50.842;6.084;2023-02-01T04:21:27;4.72;89.20
66144;SHT31;52947;50.842;6.084;2023-02-01T04:23:55;4.68;89.03
66144;SHT31;52947;50.842;6.084;2023-02-01T04:26:24;4.59;88.79
66144;SHT31;52947;50.842;6.084;2023-02-01T04:28:52;4.55;88.73
66144;SHT31;52947;50.842;6.084;2023-02-01T04:31:20;4.52;88.63
66144;SHT31;52947;50.842;6.084;2023-02-01T04:33:52;4.45;88.89
66144;SHT31;52947;50.842;6.084;2023-02-01T04:36:21;4.51;88.67
66144;SHT31;52947;50.842;6.084;2023-02-01T04:38:49;4.54;88.77
66144;SHT31;52947;50.842;6.084;2023-02-01T04:41:17;4.57;88.51
66144;SHT31;52947;50.842;6.084;2023-02-01T04:43:46;4.68;88.31
66144;SHT31;52947;50.842;6.084;2023-02-01T04:46:15;4.68;87.98
66144;SHT31;52947;50.842;6.084;2023-02-01T04:48:43;4.75;87.98
66144;SHT31;52947;50.842;6.084;2023-02-01T04:51:10;4.82;87.71
66144;SHT31;52947;50.842;6.084;2023-02-01T04:53:38;4.76;87.60
66144;SHT31;52947;50.842;6.084;2023-02-01T04:56:07;4.76;87.48
66144;SHT31;52947;50.842;6.084;2023-02-01T04:58:34;4.75;87.38
66144;SHT31;52947;50.842;6.084;2023-02-01T05:01:05;4.66;87.73
66144;SHT31;52947;50.842;6.084;2023-02-01T05:03:33;4.62;87.84
66144;SHT31;52947;50.842;6.084;2023-02-01T05:06:01;4.59;87.67
66144;SHT31;52947;50.842;6.084;2023-02-01T05:08:30;4.59;87.54
66144;SHT31;52947;50.842;6.084;2023-02-01T05:10:58;4.52;87.78
66144;SHT31;52947;50.842;6.084;2023-02-01T05:13:29;4.51;87.94
66144;SHT31;52947;50.842;6.084;2023-02-01T05:16:16;4.51;87.82
66144;SHT31;52947;50.842;6.084;2023-02-01T05:18:43;4.55;88.65
66144;SHT31;52947;50.842;6.084;2023-02-01T05:21:11;4.73;89.32
66144;SHT31;52947;50.842;6.084;2023-02-01T05:23:39;4.80;88.41
66144;SHT31;52947;50.842;6.084;2023-02-01T05:26:21;4.93;89.23
66144;SHT31;52947;50.842;6.084;2023-02-01T05:28:48;4.88;88.78
66144;SHT31;52947;50.842;6.084;2023-02-01T05:31:18;4.75;88.83
66144;SHT31;52947;50.842;6.084;2023-02-01T05:33:45;4.65;88.09
66144;SHT31;52947;50.842;6.084;2023-02-01T05:36:13;4.62;88.41
66144;SHT31;52947;50.842;6.084;2023-02-01T05:38:41;4.61;88.76
66144;SHT31;52947;50.842;6.084;2023-02-01T05:41:09;4.68;89.13
66144;SHT31;52947;50.842;6.084;2023-02-01T05:43:37;4.58;88.79
66144;SHT31;52947;50.842;6.084;2023-02-01T05:46:04;4.58;88.69
66144;SHT31;52947;50.842;6.084;2023-02-01T05:48:33;4.76;89.26
66144;SHT31;52947;50.842;6.084;2023-02-01T05:51:01;4.71;88.95
66144;SHT31;52947;50.842;6.084;2023-02-01T05:53:29;4.73;88.37
66144;SHT31;52947;50.842;6.084;2023-02-01T05:55:57;4.69;88.29
66144;SHT31;52947;50.842;6.084;2023-02-01T05:58:25;4.73;87.95
66144;SHT31;52947;50.842;6.084;2023-02-01T06:00:52;4.66;88.30
66144;SHT31;52947;50.842;6.084;2023-02-01T06:03:20;4.58;87.96
66144;SHT31;52947;50.842;6.084;2023-02-01T06:05:49;4.52;88.23
66144;SHT31;52947;50.842;6.084;2023-02-01T06:08:17;4.48;88.14
66144;SHT31;52947;50.842;6.084;2023-02-01T06:10:45;4.51;88.58
66144;SHT31;52947;50.842;6.084;2023-02-01T06:13:13;4.54;89.79
66144;SHT31;52947;50.842;6.084;2023-02-01T06:15:40;4.55;88.54
66144;SHT31;52947;50.842;6.084;2023-02-01T06:18:10;4.59;88.96
66144;SHT31;52947;50.842;6.084;2023-02-01T06:20:38;4.44;88.05
66144;SHT31;52947;50.842;6.084;2023-02-01T06:23:07;4.49;88.54
66144;SHT31;52947;50.842;6.084;2023-02-01T06:25:35;4.47;88.43
66144;SHT31;52947;50.842;6.084;2023-02-01T06:28:04;4.42;88.24
66144;SHT31;52947;50.842;6.084;2023-02-01T06:30:32;4.57;89.12
66144;SHT31;52947;50.842;6.084;2023-02-01T06:33:01;4.42;88.78
66144;SHT31;52947;50.842;6.084;2023-02-01T06:35:29;4.34;88.58
66144;SHT31;52947;50.842;6.084;2023-02-01T06:37:57;4.37;88.05
66144;SHT31;52947;50.842;6.084;2023-02-01T06:40:26;4.40;88.71
66144;SHT31;52947;50.842;6.084;2023-02-01T06:42:54;4.34;88.63
66144;SHT31;52947;50.842;6.084;2023-02-01T06:45:21;4.37;88.31
66144;SHT31;52947;50.842;6.084;2023-02-01T06:47:49;4.49;89.57
66144;SHT31;52947;50.842;6.084;2023-02-01T06:50:17;4.45;88.54
66144;SHT31;52947;50.842;6.084;2023-02-01T06:52:45;4.44;88.25
66144;SHT31;52947;50.842;6.084;2023-02-01T06:55:13;4.48;88.54
66144;SHT31;52947;50.842;6.084;2023-02-01T06:57:42;4.40;88.11
66144;SHT31;52947;50.842;6.084;2023-02-01T07:00:11;4.40;88.35
66144;SHT31;52947;50.842;6.084;2023-02-01T07:02:38;4.44;88.88
66144;SHT31;52947;50.842;6.084;2023-02-01T07:05:07;4.47;88.92
66144;SHT31;52947;50.842;6.084;2023-02-01T07:07:34;4.45;87.90
66144;SHT31;52947;50.842;6.084;2023-02-01T07:10:03;4.44;88.19
66144;SHT31;52947;50.842;6.084;2023-02-01T07:12:31;4.35;88.10
66144;SHT31;52947;50.842;6.084;2023-02-01T07:15:00;4.34;88.34
66144;SHT31;52947;50.842;6.084;2023-02-01T07:17:29;4.33;88.38
66144;SHT31;52947;50.842;6.084;2023-02-01T07:19:56;4.33;88.47
66144;SHT31;52947;50.842;6.084;2023-02-01T07:22:26;4.28;88.10
66144;SHT31;52947;50.842;6.084;2023-02-01T07:24:53;4.38;88.52
66144;SHT31;52947;50.842;6.084;2023-02-01T07:27:21;4.35;88.31
66144;SHT31;52947;50.842;6.084;2023-02-01T07:29:51;4.38;88.10
66144;SHT31;52947;50.842;6.084;2023-02-01T07:32:20;4.49;88.34
66144;SHT31;52947;50.842;6.084;2023-02-01T07:34:48;4.57;88.29
66144;SHT31;52947;50.842;6.084;2023-02-01T07:37:16;4.55;87.68
66144;SHT31;52947;50.842;6.084;2023-02-01T07:39:44;4.57;87.59
66144;SHT31;52947;50.842;6.084;2023-02-01T07:42:12;4.58;87.16
66144;SHT31;52947;50.842;6.084;2023-02-01T07:44:40;4.61;87.57
66144;SHT31;52947;50.842;6.084;2023-02-01T07:47:08;4.54;87.07
66144;SHT31;52947;50.842;6.084;2023-02-01T07:49:37;4.54;86.85
66144;SHT31;52947;50.842;6.084;2023-02-01T07:52:05;4.49;87.08
66144;SHT31;52947;50.842;6.084;2023-02-01T07:54:32;4.48;87.15
66144;SHT31;52947;50.842;6.084;2023-02-01T07:57:00;4.45;87.41
66144;SHT31;52947;50.842;6.084;2023-02-01T07:59:28;4.54;87.90
66144;SHT31;52947;50.842;6.084;2023-02-01T08:01:56;4.57;87.43
66144;SHT31;52947;50.842;6.084;2023-02-01T08:04:22;4.49;86.89
66144;SHT31;52947;50.842;6.084;2023-02-01T08:06:52;4.48;87.26
66144;SHT31;52947;50.842;6.084;2023-02-01T08:09:19;4.55;86.72
66144;SHT31;52947;50.842;6.084;2023-02-01T08:11:47;4.73;86.72
66144;SHT31;52947;50.842;6.084;2023-02-01T08:14:15;5.17;85.67
66144;SHT31;52947;50.842;6.084;2023-02-01T08:16:43;5.06;85.40
66144;SHT31;52947;50.842;6.084;2023-02-01T08:19:11;4.92;86.45
66144;SHT31;52947;50.842;6.084;2023-02-01T08:21:38;4.79;86.19
66144;SHT31;52947;50.842;6.084;2023-02-01T08:24:08;4.89;86.85
66144;SHT31;52947;50.842;6.084;2023-02-01T08:26:37;5.01;86.27
66144;SHT31;52947;50.842;6.084;2023-02-01T08:29:06;5.57;84.77
66144;SHT31;52947;50.842;6.084;2023-02-01T08:31:38;6.64;83.85
66144;SHT31;52947;50.842;6.084;2023-02-01T08:34:08;7.28;82.63
66144;SHT31;52947;50.842;6.084;2023-02-01T08:36:38;7.80;81.12
66144;SHT31;52947;50.842;6.084;2023-02-01T08:39:08;7.98;78.26
66144;SHT31;52947;50.842;6.084;2023-02-01T08:41:37;8.03;78.36
66144;SHT31;52947;50.842;6.084;2023-02-01T08:44:05;8.04;78.28
66144;SHT31;52947;50.842;6.084;2023-02-01T08:46:33;8.17;79.05
66144;SHT31;52947;50.842;6.084;2023-02-01T08:49:01;8.11;77.06
66144;SHT31;52947;50.842;6.084;2023-02-01T08:51:28;8.34;77.76
66144;SHT31;52947;50.842;6.084;2023-02-01T08:53:56;8.01;77.66
66144;SHT31;52947;50.842;6.084;2023-02-01T08:56:25;7.31;80.07
66144;SHT31;52947;50.842;6.084;2023-02-01T08:58:53;7.19;81.21
66144;SHT31;52947;50.842;6.084;2023-02-01T09:01:21;6.85;80.73
66144;SHT31;52947;50.842;6.084;2023-02-01T09:03:49;6.66;81.33
66144;SHT31;52947;50.842;6.084;2023-02-01T09:06:17;6.84;81.66
66144;SHT31;52947;50.842;6.084;2023-02-01T09:08:45;6.46;81.88
66144;SHT31;52947;50.842;6.084;2023-02-01T09:11:14;6.77;81.91
66144;SHT31;52947;50.842;6.084;2023-02-01T09:13:44;7.24;81.14
66144;SHT31;52947;50.842;6.084;2023-02-01T09:16:12;7.24;80.98
66144;SHT31;52947;50.842;6.084;2023-02-01T09:18:40;7.11;81.12
66144;SHT31;52947;50.842;6.084;2023-02-01T09:21:21;6.94;81.12
66144;SHT31;52947;50.842;6.084;2023-02-01T09:23:50;7.07;81.17
66144;SHT31;52947;50.842;6.084;2023-02-01T09:26:18;7.00;81.44
66144;SHT31;52947;50.842;6.084;2023-02-01T09:28:59;6.85;81.75
66144;SHT31;52947;50.842;6.084;2023-02-01T09:31:26;6.76;81.90
66144;SHT31;52947;50.842;6.084;2023-02-01T09:33:54;6.88;82.16
66144;SHT31;52947;50.842;6.084;2023-02-01T09:36:22;7.18;82.37
66144;SHT31;52947;50.842;6.084;2023-02-01T09:38:50;7.38;81.77
66144;SHT31;52947;50.842;6.084;2023-02-01T09:41:27;7.36;81.18
66144;SHT31;52947;50.842;6.084;2023-02-01T09:44:05;7.51;80.44
66144;SHT31;52947;50.842;6.084;2023-02-01T09:46:34;7.51;79.83
66144;SHT31;52947;50.842;6.084;2023-02-01T09:49:05;7.51;80.52
66144;SHT31;52947;50.842;6.084;2023-02-01T09:51:36;8.25;79.59
66144;SHT31;52947;50.842;6.084;2023-02-01T09:54:09;8.59;77.52
66144;SHT31;52947;50.842;6.084;2023-02-01T09:56:42;8.25;77.58
66144;SHT31;52947;50.842;6.084;2023-02-01T09:59:23;8.21;77.52
66144;SHT31;52947;50.842;6.084;2023-02-01T10:01:53;7.93;77.84
66144;SHT31;52947;50.842;6.084;2023-02-01T10:04:21;8.88;76.58
66144;SHT31;52947;50.842;6.084;2023-02-01T10:07:01;9.15;74.86
66144;SHT31;52947;50.842;6.084;2023-02-01T10:09:42;9.43;73.94
66144;SHT31;52947;50.842;6.084;2023-02-01T10:12:38;9.94;72.87
66144;SHT31;52947;50.842;6.084;2023-02-01T10:15:22;10.13;71.97
66144;SHT31;52947;50.842;6.084;2023-02-01T10:18:08;10.38;70.94
66144;SHT31;52947;50.842;6.084;2023-02-01T10:20:52;10.94;69.89
66144;SHT31;52947;50.842;6.084;2023-02-01T10:23:35;10.36;70.18
66144;SHT31;52947;50.842;6.084;2023-02-01T10:26:12;10.83;69.71
66144;SHT31;52947;50.842;6.084;2023-02-01T10:28:48;11.20;68.13
66144;SHT31;52947;50.842;6.084;2023-02-01T10:31:18;11.30;68.51
66144;SHT31;52947;50.842;6.084;2023-02-01T10:33:49;10.25;71.53
66144;SHT31;52947;50.842;6.084;2023-02-01T10:36:21;10.74;69.84
66144;SHT31;52947;50.842;6.084;2023-02-01T10:38:50;9.99;70.35
66144;SHT31;52947;50.842;6.084;2023-02-01T10:41:20;9.15;75.25
66144;SHT31;52947;50.842;6.084;2023-02-01T10:43:52;9.30;75.70
66144;SHT31;52947;50.842;6.084;2023-02-01T10:46:22;9.29;73.82
66144;SHT31;52947;50.842;6.084;2023-02-01T10:48:53;8.58;75.67
66144;SHT31;52947;50.842;6.084;2023-02-01T10:51:24;8.52;76.08
66144;SHT31;52947;50.842;6.084;2023-02-01T10:53:57;9.44;74.10
66144;SHT31;52947;50.842;6.084;2023-02-01T10:56:27;10.11;72.37
66144;SHT31;52947;50.842;6.084;2023-02-01T10:59:00;9.81;73.17
66144;SHT31;52947;50.842;6.084;2023-02-01T11:01:34;9.46;74.55
66144;SHT31;52947;50.842;6.084;2023-02-01T11:04:05;9.40;74.17
66144;SHT31;52947;50.842;6.084;2023-02-01T11:06:36;9.50;73.96
66144;SHT31;52947;50.842;6.084;2023-02-01T11:09:11;8.92;75.29
66144;SHT31;52947;50.842;6.084;2023-02-01T11:11:53;8.35;77.08
66144;SHT31;52947;50.842;6.084;2023-02-01T11:14:27;8.07;77.84
66144;SHT31;52947;50.842;6.084;2023-02-01T11:16:58;9.30;75.13
66144;SHT31;52947;50.842;6.084;2023-02-01T11:19:27;9.84;74.77
66144;SHT31;52947;50.842;6.084;2023-02-01T11:21:57;9.34;74.72
66144;SHT31;52947;50.842;6.084;2023-02-01T11:24:27;9.98;74.54
66144;SHT31;52947;50.842;6.084;2023-02-01T11:26:56;10.57;71.47
66144;SHT31;52947;50.842;6.084;2023-02-01T11:29:29;11.12;69.84
66144;SHT31;52947;50.842;6.084;2023-02-01T11:31:59;9.75;72.59
66144;SHT31;52947;50.842;6.084;2023-02-01T11:34:37;9.91;73.47
66144;SHT31;52947;50.842;6.084;2023-02-01T11:37:14;9.16;74.69
66144;SHT31;52947;50.842;6.084;2023-02-01T11:39:53;9.00;75.73
66144;SHT31;52947;50.842;6.084;2023-02-01T11:42:21;8.59;76.49
66144;SHT31;52947;50.842;6.084;2023-02-01T11:44:49;9.03;76.02
66144;SHT31;52947;50.842;6.084;2023-02-01T11:47:24;8.73;75.85
66144;SHT31;52947;50.842;6.084;2023-02-01T11:49:53;8.52;76.22
66144;SHT31;52947;50.842;6.084;2023-02-01T11:52:33;8.42;76.66
66144;SHT31;52947;50.842;6.084;2023-02-01T11:55:21;8.37;77.58
66144;SHT31;52947;50.842;6.084;2023-02-01T11:58:01;8.06;77.98
66144;SHT31;52947;50.842;6.084;2023-02-01T12:00:53;7.87;78.46
66144;SHT31;52947;50.842;6.084;2023-02-01T12:04:00;7.72;78.36
66144;SHT31;52947;50.842;6.084;2023-02-01T12:06:42;7.84;78.89
66144;SHT31;52947;50.842;6.084;2023-02-01T12:09:16;7.80;78.73
66144;SHT31;52947;50.842;6.084;2023-02-01T12:11:55;7.83;78.55
66144;SHT31;52947;50.842;6.084;2023-02-01T12:14:37;7.79;79.09
66144;SHT31;52947;50.842;6.084;2023-02-01T12:20:21;7.86;79.58
66144;SHT31;52947;50.842;6.084;2023-02-01T12:22:59;7.83;79.59
66144;SHT31;52947;50.842;6.084;2023-02-01T12:25:39;7.86;79.31
66144;SHT31;52947;50.842;6.084;2023-02-01T12:28:30;7.84;79.20
66144;SHT31;52947;50.842;6.084;2023-02-01T12:31:15;7.79;78.98
66144;SHT31;52947;50.842;6.084;2023-02-01T12:34:03;7.75;78.46
66144;SHT31;52947;50.842;6.084;2023-02-01T12:36:46;7.70;79.46
66144;SHT31;52947;50.842;6.084;2023-02-01T12:39:22;7.67;79.65
66144;SHT31;52947;50.842;6.084;2023-02-01T12:41:59;7.63;78.57
66144;SHT31;52947;50.842;6.084;2023-02-01T12:44:35;7.61;78.99
66144;SHT31;52947;50.842;6.084;2023-02-01T12:47:09;7.63;79.76
66144;SHT31;52947;50.842;6.084;2023-02-01T12:49:48;7.59;79.04
66144;SHT31;52947;50.842;6.084;2023-02-01T12:52:21;7.76;80.33
66144;SHT31;52947;50.842;6.084;2023-02-01T12:54:55;7.73;80.25
66144;SHT31;52947;50.842;6.084;2023-02-01T12:57:27;7.59;79.32
66144;SHT31;52947;50.842;6.084;2023-02-01T13:00:02;7.59;79.54
66144;SHT31;52947;50.842;6.084;2023-02-01T13:02:37;7.72;79.81
66144;SHT31;52947;50.842;6.084;2023-02-01T13:05:15;7.63;80.15
66144;SHT31;52947;50.842;6.084;2023-02-01T13:07:50;7.67;79.96
66144;SHT31;52947;50.842;6.084;2023-02-01T13:10:24;7.70;78.92
66144;SHT31;52947;50.842;6.084;2023-02-01T13:12:56;7.70;78.31
66144;SHT31;52947;50.842;6.084;2023-02-01T13:15:29;7.67;78.51
66144;SHT31;52947;50.842;6.084;2023-02-01T13:18:02;7.66;77.93
66144;SHT31;52947;50.842;6.084;2023-02-01T13:20:35;7.75;78.25
66144;SHT31;52947;50.842;6.084;2023-02-01T13:23:21;7.72;77.52
66144;SHT31;52947;50.842;6.084;2023-02-01T13:25:51;7.76;78.17
66144;SHT31;52947;50.842;6.084;2023-02-01T13:28:25;7.79;77.52
66144;SHT31;52947;50.842;6.084;2023-02-01T13:34:42;7.83;77.14
66144;SHT31;52947;50.842;6.084;2023-02-01T13:37:24;7.82;77.32
66144;SHT31;52947;50.842;6.084;2023-02-01T13:42:59;7.86;77.14
66144;SHT31;52947;50.842;6.084;2023-02-01T13:45:30;7.84;77.45
66144;SHT31;52947;50.842;6.084;2023-02-01T13:48:01;7.84;77.83
66144;SHT31;52947;50.842;6.084;2023-02-01T13:50:32;7.89;78.09
66144;SHT31;52947;50.842;6.084;2023-02-01T13:53:11;7.89;77.21
66144;SHT31;52947;50.842;6.084;2023-02-01T13:55:44;7.87;77.04
66144;SHT31;52947;50.842;6.084;2023-02-01T13:58:20;7.80;77.70
66144;SHT31;52947;50.842;6.084;2023-02-01T14:00:49;7.86;78.22
66144;SHT31;52947;50.842;6.084;2023-02-01T14:03:18;7.86;77.55
66144;SHT31;52947;50.842;6.084;2023-02-01T14:06:18;7.80;77.21
66144;SHT31;52947;50.842;6.084;2023-02-01T14:09:21;7.82;77.66
66144;SHT31;52947;50.842;6.084;2023-02-01T14:11:58;7.90;77.61
66144;SHT31;52947;50.842;6.084;2023-02-01T14:14:49;7.89;77.73
66144;SHT31;52947;50.842;6.084;2023-02-01T14:17:34;7.89;77.49
66144;SHT31;52947;50.842;6.084;2023-02-01T14:23:27;7.94;77.71
66144;SHT31;52947;50.842;6.084;2023-02-01T14:26:16;7.91;76.90
66144;SHT31;52947;50.842;6.084;2023-02-01T14:28:58;7.90;77.32
66144;SHT31;52947;50.842;6.084;2023-02-01T14:31:36;7.86;77.47
66144;SHT31;52947;50.842;6.084;2023-02-01T14:34:13;7.89;77.90
66144;SHT31;52947;50.842;6.084;2023-02-01T14:36:45;7.93;76.51
66144;SHT31;52947;50.842;6.084;2023-02-01T14:39:22;7.91;76.58
66144;SHT31;52947;50.842;6.084;2023-02-01T14:41:54;8.07;76.68
66144;SHT31;52947;50.842;6.084;2023-02-01T14:44:31;8.07;76.17
66144;SHT31;52947;50.842;6.084;2023-02-01T14:49:55;8.14;76.74
66144;SHT31;52947;50.842;6.084;2023-02-01T14:52:30;8.20;75.70
66144;SHT31;52947;50.842;6.084;2023-02-01T14:55:03;8.11;75.63
66144;SHT31;52947;50.842;6.084;2023-02-01T14:57:35;8.11;75.94
66144;SHT31;52947;50.842;6.084;2023-02-01T15:00:18;8.08;76.11
66144;SHT31;52947;50.842;6.084;2023-02-01T15:02:48;8.11;76.08
66144;SHT31;52947;50.842;6.084;2023-02-01T15:05:26;8.13;76.45
66144;SHT31;52947;50.842;6.084;2023-02-01T15:08:00;8.11;75.70
66144;SHT31;52947;50.842;6.084;2023-02-01T15:10:31;8.14;75.94
66144;SHT31;52947;50.842;6.084;2023-02-01T15:13:00;8.11;76.91
66144;SHT31;52947;50.842;6.084;2023-02-01T15:15:28;8.00;75.76
66144;SHT31;52947;50.842;6.084;2023-02-01T15:18:01;8.04;76.30
66144;SHT31;52947;50.842;6.084;2023-02-01T15:20:31;7.97;76.67
66144;SHT31;52947;50.842;6.084;2023-02-01T15:23:00;8.06;77.92
66144;SHT31;52947;50.842;6.084;2023-02-01T15:25:29;7.96;77.97
66144;SHT31;52947;50.842;6.084;2023-02-01T15:27:57;8.00;78.41
66144;SHT31;52947;50.842;6.084;2023-02-01T15:30:27;7.93;79.00
66144;SHT31;52947;50.842;6.084;2023-02-01T15:33:06;7.86;79.78
66144;SHT31;52947;50.842;6.084;2023-02-01T15:35:40;7.79;79.86
66144;SHT31;52947;50.842;6.084;2023-02-01T15:38:38;7.67;80.98
66144;SHT31;52947;50.842;6.084;2023-02-01T15:41:13;7.63;80.46
66144;SHT31;52947;50.842;6.084;2023-02-01T15:43:44;7.58;80.77
66144;SHT31;52947;50.842;6.084;2023-02-01T15:46:16;7.52;81.19
66144;SHT31;52947;50.842;6.084;2023-02-01T15:48:49;7.51;81.74
66144;SHT31;52947;50.842;6.084;2023-02-01T15:51:20;7.42;81.93
66144;SHT31;52947;50.842;6.084;2023-02-01T15:53:52;7.21;82.93
66144;SHT31;52947;50.842;6.084;2023-02-01T15:56:23;7.07;83.45
66144;SHT31;52947;50.842;6.084;2023-02-01T15:58:54;6.90;84.13
66144;SHT31;52947;50.842;6.084;2023-02-01T16:01:22;6.80;84.74
66144;SHT31;52947;50.842;6.084;2023-02-01T16:04:04;6.67;85.17
66144;SHT31;52947;50.842;6.084;2023-02-01T16:06:46;6.60;85.27
66144;SHT31;52947;50.842;6.084;2023-02-01T16:09:16;6.53;85.79
66144;SHT31;52947;50.842;6.084;2023-02-01T16:11:56;6.53;85.93
66144;SHT31;52947;50.842;6.084;2023-02-01T16:14:24;6.47;86.28
66144;SHT31;52947;50.842;6.084;2023-02-01T16:16:54;6.47;86.19
66144;SHT31;52947;50.842;6.084;2023-02-01T16:19:23;6.44;86.34
66144;SHT31;52947;50.842;6.084;2023-02-01T16:21:55;6.44;86.52
66144;SHT31;52947;50.842;6.084;2023-02-01T16:24:22;6.42;86.53
66144;SHT31;52947;50.842;6.084;2023-02-01T16:26:52;6.43;86.49
66144;SHT31;52947;50.842;6.084;2023-02-01T16:29:20;6.39;86.87
66144;SHT31;52947;50.842;6.084;2023-02-01T16:31:48;6.39;87.00
66144;SHT31;52947;50.842;6.084;2023-02-01T16:34:17;6.36;87.01
66144;SHT31;52947;50.842;6.084;2023-02-01T16:36:48;6.37;87.25
66144;SHT31;52947;50.842;6.084;2023-02-01T16:39:19;6.34;87.24
66144;SHT31;52947;50.842;6.084;2023-02-01T16:41:47;6.33;87.41
66144;SHT31;52947;50.842;6.084;2023-02-01T16:44:15;6.28;87.35
66144;SHT31;52947;50.842;6.084;2023-02-01T16:46:44;6.28;87.13